ADDS METAR Data INFO
IDs: Format: Raw Decoded Include TAF

Data at: 0835 UTC 21 Oct 2017

KIMS 210813Z AUTO 00000KT 10SM CLR 11/10 A3019 RMK AO1
KIMS 210753Z AUTO 12003KT 10SM CLR 11/09 A3020 RMK AO1
KIMS 210733Z AUTO 11003KT 10SM CLR 11/09 A3020 RMK AO1
KIMS 210713Z AUTO 12003KT 10SM CLR 13/10 A3020 RMK AO1
KIMS 210653Z AUTO 11004KT 10SM CLR 12/11 A3020 RMK AO1
KIMS 210633Z AUTO 11003KT 10SM CLR 12/10 A3020 RMK AO1
KIMS 210613Z AUTO 10003KT 10SM CLR 12/10 A3019 RMK AO1
KIMS 210553Z AUTO 11003KT 10SM CLR 13/10 A3019 RMK AO1
KIMS 210533Z AUTO 11005KT 10SM CLR 13/10 A3019 RMK AO1
KIMS 210513Z AUTO 11005KT 10SM CLR 12/11 A3020 RMK AO1
KIMS 210453Z AUTO 00000KT 10SM CLR 12/10 A3020 RMK AO1
KIMS 210433Z AUTO 11004KT 10SM CLR 12/10 A3020 RMK AO1
KIMS 210413Z AUTO 11003KT 10SM CLR 13/10 A3021 RMK AO1
KIMS 210353Z AUTO 10003KT 10SM CLR 12/10 A3021 RMK AO1
KIMS 210333Z AUTO 00000KT 10SM CLR 13/10 A3021 RMK AO1
KIMS 210314Z AUTO 12003KT 10SM CLR 12/11 A3021 RMK AO1
KIMS 210253Z AUTO 00000KT 10SM CLR 12/10 A3021 RMK AO1
KIMS 210233Z AUTO 00000KT 10SM CLR 13/10 A3021 RMK AO1
KIMS 210214Z AUTO 12003KT 10SM CLR 15/10 A3021 RMK AO1
KIMS 210153Z AUTO 00000KT 10SM CLR 13/11 A3021 RMK AO1
KIMS 210133Z AUTO 11003KT 10SM CLR 12/10 A3021 RMK AO1
KIMS 210113Z AUTO 00000KT 10SM CLR 13/10 A3021 RMK AO1
KIMS 210053Z AUTO 11003KT 10SM CLR 12/10 A3021 RMK AO1
KIMS 210033Z AUTO 00000KT 10SM CLR 12/10 A3021 RMK AO1
KIMS 210012Z AUTO 00000KT 10SM CLR 15/10 A3021 RMK AO1
KIMS 202353Z AUTO 00000KT 10SM CLR 14/10 A3021 RMK AO1
KIMS 202333Z AUTO 00000KT 10SM CLR 16/10 A3021 RMK AO1
KIMS 202313Z AUTO 00000KT 10SM CLR 17/10 A3021 RMK AO1
KIMS 202253Z AUTO 00000KT 10SM CLR 19/10 A3020 RMK AO1
KIMS 202232Z AUTO 16003KT 10SM CLR 21/08 A3020 RMK AO1
KIMS 202213Z AUTO 16003KT 10SM CLR 23/08 A3020 RMK AO1
KIMS 202153Z AUTO 17003KT 10SM CLR 24/08 A3020 RMK AO1
KIMS 202133Z AUTO 16003KT 10SM CLR 25/07 A3020 RMK AO1
KIMS 202113Z AUTO 15004KT 10SM CLR 25/07 A3020 RMK AO1
KIMS 202053Z AUTO 15004KT 10SM CLR 25/06 A3021 RMK AO1
KIMS 202033Z AUTO 18003KT 10SM CLR 25/06 A3021 RMK AO1
KIMS 202013Z AUTO 16006KT 10SM CLR 25/06 A3022 RMK AO1
KIMS 201953Z AUTO 15006KT 10SM CLR 25/07 A3022 RMK AO1
KIMS 201933Z AUTO 17007KT 10SM CLR 25/08 A3023 RMK AO1
KIMS 201913Z AUTO 17005KT 10SM CLR 25/08 A3023 RMK AO1
KIMS 201853Z AUTO 17005KT 10SM CLR 25/08 A3024 RMK AO1
KIMS 201833Z AUTO 16007KT 10SM CLR 24/08 A3025 RMK AO1
KIMS 201813Z AUTO 15005KT 10SM CLR 23/08 A3026 RMK AO1
KIMS 201753Z AUTO 15006KT 10SM CLR 23/09 A3027 RMK AO1
KIMS 201733Z AUTO 14006KT 10SM CLR 23/08 A3028 RMK AO1
KIMS 201713Z AUTO 17004KT 10SM CLR 23/09 A3029 RMK AO1
KIMS 201653Z AUTO 20003KT 10SM CLR 22/10 A3030 RMK AO1
KIMS 201633Z AUTO 16003KT 10SM CLR 22/10 A3030 RMK AO1
KIMS 201613Z AUTO 00000KT 10SM CLR 21/11 A3031 RMK AO1
KIMS 201553Z AUTO 19003KT 10SM CLR 20/11 A3032 RMK AO1
KIMS 201533Z AUTO 00000KT 10SM CLR 18/11 A3033 RMK AO1
KIMS 201513Z AUTO 00000KT 10SM CLR 17/11 A3033 RMK AO1
KIMS 201453Z AUTO 00000KT 10SM CLR 16/12 A3033 RMK AO1
KIMS 201433Z AUTO 16003KT 10SM CLR 15/12 A3033 RMK AO1
KIMS 201412Z AUTO 00000KT 10SM CLR 13/13 A3034 RMK AO1
KIMS 201353Z AUTO 00000KT 10SM CLR 13/12 A3034 RMK AO1
KIMS 201333Z AUTO 00000KT 10SM CLR 12/11 A3033 RMK AO1
KIMS 201312Z AUTO 00000KT 7SM CLR 10/10 A3033 RMK AO1
KIMS 201253Z AUTO 00000KT 4SM CLR 09/08 A3032 RMK AO1
KIMS 201233Z AUTO 00000KT 4SM CLR 08/07 A3031 RMK AO1
KIMS 201212Z AUTO 00000KT 1/2SM VV005 07/06 A3031 RMK AO1
KIMS 201153Z AUTO 00000KT 1/2SM VV005 08/07 A3030 RMK AO1
KIMS 201133Z AUTO 00000KT 2SM CLR 08/07 A3030 RMK AO1
KIMS 201112Z AUTO 00000KT 3/4SM VV005 07/07 A3029 RMK AO1
KIMS 201053Z AUTO 00000KT 4SM CLR 08/08 A3029 RMK AO1
KIMS 201033Z AUTO 00000KT 5SM CLR 08/07 A3029 RMK AO1
KIMS 201012Z AUTO 00000KT 3/4SM VV005 08/07 A3029 RMK AO1
KIMS 200953Z AUTO 00000KT 2 1/2SM CLR 08/08 A3028 RMK AO1 VIS 1/2V5
KIMS 200933Z AUTO 00000KT 1/2SM VV005 09/08 A3028 RMK AO1
KIMS 200913Z AUTO 00000KT 1 1/4SM VV007 08/08 A3027 RMK AO1
KIMS 200853Z AUTO 00000KT 1/4SM VV002 08/07 A3027 RMK AO1
KIMS 200833Z AUTO 00000KT 1/2SM VV005 08/08 A3027 RMK AO1
KIMS 200813Z AUTO 00000KT 1/2SM VV005 09/08 A3026 RMK AO1
KIMS 200753Z AUTO 00000KT 1/2SM VV005 08/08 A3026 RMK AO1
KIMS 200733Z AUTO 00000KT 1/2SM VV005 09/08 A3026 RMK AO1
KIMS 200713Z AUTO 00000KT 1 1/4SM VV007 09/08 A3026 RMK AO1 VIS 1/2V5
KIMS 200653Z AUTO 00000KT 3SM CLR 09/08 A3026 RMK AO1
KIMS 200633Z AUTO 00000KT 3/4SM VV005 10/09 A3026 RMK AO1
KIMS 200613Z AUTO 00000KT 2 1/2SM CLR 10/09 A3026 RMK AO1 VIS 1/2V5
KIMS 200553Z AUTO 00000KT 3SM CLR 10/09 A3026 RMK AO1
KIMS 200533Z AUTO 00000KT 3SM CLR 11/10 A3026 RMK AO1
KIMS 200513Z AUTO 00000KT 1 1/4SM VV007 10/09 A3026 RMK AO1
KIMS 200453Z AUTO 00000KT 10SM CLR 11/10 A3026 RMK AO1
KIMS 200433Z AUTO 00000KT 10SM CLR 10/09 A3026 RMK AO1
KIMS 200413Z AUTO 00000KT 10SM CLR 11/10 A3026 RMK AO1
KIMS 200353Z AUTO 00000KT 10SM CLR 11/10 A3026 RMK AO1
KIMS 200333Z AUTO 00000KT 10SM CLR 11/10 A3026 RMK AO1
KIMS 200313Z AUTO 00000KT 10SM CLR 11/10 A3026 RMK AO1
KIMS 200253Z AUTO 00000KT 10SM CLR 12/10 A3025 RMK AO1
KIMS 200233Z AUTO 00000KT 10SM CLR 12/10 A3025 RMK AO1
KIMS 200213Z AUTO 00000KT 10SM CLR 12/10 A3025 RMK AO1
KIMS 200153Z AUTO 00000KT 10SM CLR 12/10 A3025 RMK AO1
KIMS 200133Z AUTO 00000KT 10SM CLR 12/10 A3025 RMK AO1
KIMS 200113Z AUTO 00000KT 10SM CLR 13/11 A3025 RMK AO1
KIMS 200053Z AUTO 00000KT 10SM CLR 13/11 A3025 RMK AO1
KIMS 200033Z AUTO 00000KT 10SM CLR 14/11 A3025 RMK AO1
KIMS 200013Z AUTO 00000KT 10SM CLR 14/10 A3024 RMK AO1
KIMS 192353Z AUTO 00000KT 10SM CLR 15/11 A3024 RMK AO1
KIMS 192333Z AUTO 00000KT 10SM CLR 16/11 A3023 RMK AO1
KIMS 192313Z AUTO 00000KT 10SM CLR 17/10 A3023 RMK AO1
KIMS 192253Z AUTO 00000KT 10SM CLR 18/10 A3023 RMK AO1
KIMS 192233Z AUTO 00000KT 10SM CLR 20/10 A3023 RMK AO1
KIMS 192213Z AUTO 00000KT 10SM CLR 22/08 A3023 RMK AO1
KIMS 192153Z AUTO 23004KT 10SM CLR 22/07 A3022 RMK AO1
KIMS 192133Z AUTO 22004KT 10SM CLR 23/07 A3022 RMK AO1
KIMS 192113Z AUTO 20004KT 10SM CLR 23/08 A3022 RMK AO1
KIMS 192053Z AUTO 22004KT 10SM CLR 23/08 A3023 RMK AO1